Portada
METAR-TAF:

METAR-TAF

Aeroports :

Farmingdale, Nova York, Estats Units d'Amèrica

latitud: 40-44-03N, longitud: 073-25-01W, altitud: 24 m

Observació

L'informe es va fer fa 1 hora i 5 minuts, a les 01:53 UTC
Vent 8 kt del Sud
Temperatura 16°C
Humitat 88%
Pressió 1023 hPa
Visibilitat: 16.1 km
Cel cobert a una alçada de 400 ft

METAR: KFRG 270153Z 18008KT 10SM OVC004 16/14 A3021 RMK AO2 SLP230 T01610139

Hora: 22:58 (02:58 UTC)


TAF: manca

Observacions i pronòstics meteorològics de més de 4000 aeroports (METAR i TAF).

Les estacions disponibles són els punts grocs i vermells al mapa.

Posi el ratolí al punt desitjat per veure el nom de l'estació.

Feu clic per veure les observacions i els pronòstics meteorològics.

Per canviar el mapa: feu clic els botons verds amb una creu de color negre per apropar; al botó verd amb un guió per allunyar la imatge; o en les fletxes verdes per a mapes adjacents.


METAR-TAF: